Time;durP1;ratioP1;P1;durP2;ratioP2;P2;SDS_P1;SDS_P2;PMS_P1;PMS_P2;Temp;Humidity;BMP_temperature;BMP_pressure;BME280_temperature;BME280_humidity;BME280_pressure;Samples;Min_cycle;Max_cycle;Signal;HPM_P1;HPM_P2
2024/03/23 00:01:04;;;;;;;36.60;25.10;;;;;;;10.37;73.10;98226.81;226596;1272;25526;-75
2024/03/23 00:06:05;;;;;;;36.90;24.80;;;;;;;10.33;73.16;98214.23;226624;1273;22613;-74
2024/03/23 00:11:08;;;;;;;36.70;24.80;;;;;;;10.30;73.17;98207.05;226604;1272;22560;-75
2024/03/23 00:16:09;;;;;;;37.80;25.90;;;;;;;10.28;73.25;98202.27;226568;1269;22542;-75
2024/03/23 00:21:11;;;;;;;38.10;25.60;;;;;;;10.24;73.40;98192.97;226626;1272;22534;-75
2024/03/23 00:26:13;;;;;;;34.90;24.10;;;;;;;10.21;73.55;98188.35;226601;1271;22562;-75
2024/03/23 00:31:15;;;;;;;36.10;24.70;;;;;;;10.17;73.59;98178.56;226557;1274;22554;-74
2024/03/23 00:36:17;;;;;;;40.00;25.90;;;;;;;10.14;73.31;98173.71;226557;1271;22635;-75
2024/03/23 00:41:19;;;;;;;42.30;26.10;;;;;;;10.11;73.61;98171.42;226505;1274;24578;-74
2024/03/23 00:46:20;;;;;;;41.50;27.40;;;;;;;10.10;73.44;98165.51;226607;1274;22560;-75
2024/03/23 00:51:22;;;;;;;38.50;26.00;;;;;;;10.08;73.56;98151.54;226608;1271;22550;-75
2024/03/23 00:56:24;;;;;;;33.20;23.00;;;;;;;10.05;73.38;98148.89;226554;1271;22539;-74
2024/03/23 01:01:25;;;;;;;34.50;23.10;;;;;;;10.01;73.24;98145.91;226635;1268;22547;-75
2024/03/23 01:06:27;;;;;;;34.90;22.80;;;;;;;10.00;73.41;98142.82;226633;1271;22485;-75
2024/03/23 01:11:29;;;;;;;35.20;22.10;;;;;;;10.01;73.16;98134.30;226518;1272;25027;-74
2024/03/23 01:16:31;;;;;;;29.70;20.70;;;;;;;10.02;73.28;98127.24;226551;1272;24200;-75
2024/03/23 01:21:32;;;;;;;29.10;20.60;;;;;;;10.03;73.17;98116.57;226577;1273;22534;-75
2024/03/23 01:26:34;;;;;;;31.10;20.60;;;;;;;10.06;73.23;98111.50;226590;1271;25283;-75
2024/03/23 01:31:36;;;;;;;33.20;21.60;;;;;;;10.07;73.14;98102.29;226604;1271;22542;-75
2024/03/23 01:36:38;;;;;;;32.00;21.90;;;;;;;10.08;73.37;98096.08;226544;1272;22553;-75
2024/03/23 01:41:42;;;;;;;32.70;22.40;;;;;;;10.07;73.45;98088.52;226594;1270;25922;-75
2024/03/23 01:46:44;;;;;;;32.90;22.70;;;;;;;10.06;73.49;98087.91;226580;1273;22597;-74
2024/03/23 01:51:46;;;;;;;30.90;21.00;;;;;;;10.06;73.64;98090.67;226499;1274;24307;-75
2024/03/23 01:56:49;;;;;;;29.20;21.00;;;;;;;10.06;73.43;98086.29;226578;1271;22693;-75
2024/03/23 02:01:50;;;;;;;33.10;21.50;;;;;;;10.06;73.55;98084.90;226773;1272;22597;-75
2024/03/23 02:06:53;;;;;;;29.60;20.10;;;;;;;10.06;73.63;98086.45;226596;1271;25947;-75
2024/03/23 02:11:55;;;;;;;28.10;20.60;;;;;;;10.05;73.67;98085.18;226545;1274;22566;-75
2024/03/23 02:16:57;;;;;;;25.50;18.40;;;;;;;10.02;74.04;98082.01;226491;1271;23776;-75
2024/03/23 02:21:58;;;;;;;27.30;17.70;;;;;;;10.00;74.19;98069.34;226594;1271;22561;-75
2024/03/23 02:27:00;;;;;;;24.40;17.60;;;;;;;9.97;73.97;98073.64;226574;1271;22558;-75
2024/03/23 02:32:02;;;;;;;28.50;19.50;;;;;;;9.92;73.79;98065.98;226627;1272;22530;-75
2024/03/23 02:37:10;;;;;;;27.90;19.00;;;;;;;9.88;73.82;98063.48;226565;1271;22538;-75
2024/03/23 02:42:12;;;;;;;29.70;19.90;;;;;;;9.85;73.72;98054.23;226498;1270;207484;-75
2024/03/23 02:47:14;;;;;;;27.90;19.90;;;;;;;9.82;73.84;98042.92;226556;1272;22532;-76
2024/03/23 02:52:16;;;;;;;30.00;19.90;;;;;;;9.79;73.84;98043.66;226628;1271;22542;-76
2024/03/23 02:57:18;;;;;;;27.10;18.70;;;;;;;9.74;73.97;98045.56;226617;1273;23009;-76
2024/03/23 03:02:21;;;;;;;24.10;17.60;;;;;;;9.68;74.08;98033.29;226586;1274;22641;-76
2024/03/23 03:07:22;;;;;;;25.50;18.90;;;;;;;9.66;74.28;98023.63;226664;1270;22538;-76
2024/03/23 03:12:24;;;;;;;26.50;18.40;;;;;;;9.63;74.32;98018.23;226568;1271;22547;-76
2024/03/23 03:17:26;;;;;;;22.40;16.30;;;;;;;9.61;74.24;98008.50;226557;1274;22543;-76
2024/03/23 03:22:28;;;;;;;24.10;17.60;;;;;;;9.60;74.40;97988.81;226588;1272;23209;-77
2024/03/23 03:27:30;;;;;;;27.40;18.10;;;;;;;9.60;74.73;97989.11;226579;1274;23340;-74
2024/03/23 03:32:32;;;;;;;24.80;17.90;;;;;;;9.59;74.98;97989.78;226463;1274;22548;-74
2024/03/23 03:37:34;;;;;;;24.60;18.40;;;;;;;9.58;75.19;97999.27;226648;1273;22549;-74
2024/03/23 03:42:36;;;;;;;28.30;18.40;;;;;;;9.57;75.76;97996.08;226584;1269;23160;-75
2024/03/23 03:47:38;;;;;;;27.90;17.40;;;;;;;9.55;75.71;97981.02;226608;1271;25407;-74
2024/03/23 03:52:39;;;;;;;23.70;16.30;;;;;;;9.49;75.76;97966.09;226549;1269;22545;-74
2024/03/23 03:57:41;;;;;;;21.40;16.50;;;;;;;9.47;75.52;97976.30;226582;1274;23031;-74
2024/03/23 04:02:43;;;;;;;25.00;17.20;;;;;;;9.45;76.05;97982.63;226609;1274;22579;-75
2024/03/23 04:07:45;;;;;;;24.20;17.70;;;;;;;9.43;76.04;97963.23;226548;1272;22723;-75
2024/03/23 04:12:47;;;;;;;24.80;18.30;;;;;;;9.42;76.20;97951.47;226595;1272;24245;-75
2024/03/23 04:17:49;;;;;;;26.00;18.10;;;;;;;9.39;76.11;97939.53;226633;1274;22534;-75
2024/03/23 04:22:51;;;;;;;33.50;25.10;;;;;;;9.36;76.57;97931.41;226495;1274;24762;-75
2024/03/23 04:27:53;;;;;;;50.50;35.60;;;;;;;9.33;76.28;97926.92;226579;1272;24350;-75
2024/03/23 04:32:55;;;;;;;57.50;41.70;;;;;;;9.30;76.56;97922.86;226547;1273;22529;-75
2024/03/23 04:37:58;;;;;;;51.60;35.60;;;;;;;9.26;76.76;97929.58;226612;1271;22930;-75
2024/03/23 04:43:01;;;;;;;46.90;31.10;;;;;;;9.27;77.04;97928.00;226541;1273;22670;-75
2024/03/23 04:48:03;;;;;;;42.20;29.70;;;;;;;9.28;77.23;97929.91;226459;1274;22578;-75
2024/03/23 04:53:04;;;;;;;37.50;25.10;;;;;;;9.28;77.23;97922.90;226575;1274;22553;-75
2024/03/23 04:58:06;;;;;;;30.40;21.10;;;;;;;9.30;77.40;97917.68;226574;1274;24757;-75
2024/03/23 05:03:09;;;;;;;25.00;18.20;;;;;;;9.34;77.20;97913.30;226539;1271;25262;-75
2024/03/23 05:08:10;;;;;;;24.20;17.20;;;;;;;9.36;77.10;97909.15;226535;1270;25288;-75
2024/03/23 05:13:12;;;;;;;23.20;16.50;;;;;;;9.38;76.83;97912.04;226468;1274;25943;-75
2024/03/23 05:18:14;;;;;;;22.00;16.20;;;;;;;9.38;76.89;97905.06;226592;1273;22577;-75
2024/03/23 05:23:16;;;;;;;20.80;15.70;;;;;;;9.40;76.99;97896.66;226503;1274;24357;-75
2024/03/23 05:28:18;;;;;;;24.00;16.30;;;;;;;9.37;77.54;97891.27;226321;1263;22555;-78
2024/03/23 05:33:21;;;;;;;20.20;13.80;;;;;;;9.35;77.34;97896.63;226562;1271;22566;-75
2024/03/23 05:38:23;;;;;;;19.20;14.20;;;;;;;9.34;77.52;97890.84;226648;1273;22524;-75
2024/03/23 05:43:25;;;;;;;17.30;14.10;;;;;;;9.33;77.32;97865.93;226550;1272;22578;-75
2024/03/23 05:48:27;;;;;;;20.40;15.60;;;;;;;9.37;77.42;97842.39;226665;1272;22663;-75
2024/03/23 05:53:30;;;;;;;21.60;15.00;;;;;;;9.44;77.31;97836.56;226586;1274;22481;-75
2024/03/23 05:58:31;;;;;;;21.30;15.40;;;;;;;9.52;77.65;97841.25;226426;1274;22558;-76
2024/03/23 06:03:35;;;;;;;18.50;15.10;;;;;;;9.59;77.45;97831.36;226668;1272;22564;-75
2024/03/23 06:08:36;;;;;;;19.30;13.30;;;;;;;9.64;77.23;97837.67;226545;1274;22668;-75
2024/03/23 06:13:38;;;;;;;19.80;14.20;;;;;;;9.66;77.35;97846.95;226594;1274;22563;-74
2024/03/23 06:18:41;;;;;;;16.00;12.90;;;;;;;9.69;77.32;97844.32;226579;1272;22597;-75
2024/03/23 06:23:42;;;;;;;19.80;13.40;;;;;;;9.74;77.46;97844.13;226650;1274;22529;-75
2024/03/23 06:28:45;;;;;;;19.10;14.20;;;;;;;9.84;77.35;97842.95;226423;1274;22539;-75
2024/03/23 06:33:47;;;;;;;19.80;14.60;;;;;;;9.94;77.23;97839.08;226578;1257;22537;-76
2024/03/23 06:38:49;;;;;;;18.60;13.90;;;;;;;10.08;77.28;97839.58;226562;1274;22551;-76
2024/03/23 06:43:50;;;;;;;17.60;14.50;;;;;;;10.24;77.16;97830.20;226533;1274;22542;-76
2024/03/23 06:48:54;;;;;;;22.70;14.60;;;;;;;10.37;76.83;97827.31;226542;1273;24232;-75
2024/03/23 06:53:56;;;;;;;20.20;13.90;;;;;;;10.49;76.85;97821.94;226577;1272;22607;-75
2024/03/23 06:58:59;;;;;;;17.10;12.50;;;;;;;10.72;76.72;97808.92;226571;1274;23134;-74
2024/03/23 07:04:01;;;;;;;17.00;12.40;;;;;;;10.99;76.37;97798.63;226554;1274;22572;-74
2024/03/23 07:09:02;;;;;;;14.90;10.30;;;;;;;11.24;76.00;97799.11;226554;1274;22548;-74
2024/03/23 07:14:04;;;;;;;12.50;9.70;;;;;;;11.46;75.44;97793.67;226568;1274;23024;-74
2024/03/23 07:19:06;;;;;;;11.50;9.40;;;;;;;11.69;74.81;97795.65;226563;1253;22630;-75
2024/03/23 07:24:08;;;;;;;12.40;9.20;;;;;;;11.88;73.85;97798.61;226541;1274;22530;-75
2024/03/23 07:29:10;;;;;;;10.80;8.30;;;;;;;12.03;73.00;97793.80;226581;1270;24977;-74
2024/03/23 07:34:13;;;;;;;10.50;8.50;;;;;;;12.22;72.80;97797.20;226527;1274;22591;-74
2024/03/23 07:39:15;;;;;;;11.40;8.70;;;;;;;12.40;72.60;97796.29;226594;1271;22566;-74
2024/03/23 07:44:17;;;;;;;12.40;8.70;;;;;;;12.48;72.01;97770.62;226610;1274;22702;-73
2024/03/23 07:49:19;;;;;;;10.90;8.90;;;;;;;12.57;71.71;97766.95;226489;1250;22968;-73
2024/03/23 07:54:20;;;;;;;11.10;8.60;;;;;;;12.84;71.44;97764.36;226328;1261;22918;-76
2024/03/23 07:59:22;;;;;;;9.60;7.80;;;;;;;13.19;70.56;97756.42;226327;1254;22544;-74
2024/03/23 08:04:24;;;;;;;9.30;7.60;;;;;;;13.60;69.23;97753.16;226330;1254;22707;-73
2024/03/23 08:09:26;;;;;;;11.00;8.10;;;;;;;13.95;67.93;97738.44;226350;1267;22546;-74
2024/03/23 08:14:28;;;;;;;9.30;7.30;;;;;;;14.20;66.93;97726.25;226357;1260;22538;-76
2024/03/23 08:19:29;;;;;;;9.30;6.80;;;;;;;14.39;65.92;97710.62;226272;1261;22551;-75
2024/03/23 08:24:31;;;;;;;9.40;6.30;;;;;;;14.47;64.87;97697.42;226134;1254;22590;-76
2024/03/23 08:29:33;;;;;;;9.60;6.80;;;;;;;14.48;63.34;97689.01;226221;1267;22628;-76
2024/03/23 08:34:34;;;;;;;10.30;6.70;;;;;;;14.57;64.17;97678.84;225990;1267;25342;-75
2024/03/23 08:39:36;;;;;;;7.90;5.50;;;;;;;14.78;63.99;97667.11;226002;1257;25310;-75
2024/03/23 08:44:38;;;;;;;7.70;6.40;;;;;;;14.95;63.50;97654.94;226297;1260;22534;-74
2024/03/23 08:49:40;;;;;;;9.30;7.70;;;;;;;15.06;63.34;97645.68;226180;1251;22571;-74
2024/03/23 08:54:42;;;;;;;10.50;6.70;;;;;;;15.16;63.32;97640.02;226495;1266;22522;-76
2024/03/23 08:59:44;;;;;;;7.80;5.90;;;;;;;15.31;62.26;97632.81;226473;1267;25344;-74
2024/03/23 09:04:46;;;;;;;9.20;5.80;;;;;;;15.41;61.13;97617.83;226561;1273;24254;-74
2024/03/23 09:09:47;;;;;;;6.20;5.50;;;;;;;15.49;60.81;97601.89;226403;1263;22535;-75
2024/03/23 09:14:50;;;;;;;9.30;6.30;;;;;;;15.53;60.72;97598.02;226453;1267;22577;-75
2024/03/23 09:19:52;;;;;;;10.20;7.10;;;;;;;15.66;61.24;97582.73;226456;1273;22545;-75
2024/03/23 09:24:54;;;;;;;12.70;6.40;;;;;;;15.82;61.04;97563.90;226485;1251;22542;-74
2024/03/23 09:29:55;;;;;;;10.90;6.50;;;;;;;15.98;59.99;97558.61;226477;1266;22592;-75
2024/03/23 09:34:57;;;;;;;8.00;5.70;;;;;;;16.04;58.24;97550.08;226440;1274;22546;-75
2024/03/23 09:39:59;;;;;;;10.70;6.90;;;;;;;16.08;58.76;97536.75;226556;1251;22609;-74
2024/03/23 09:45:02;;;;;;;9.00;6.30;;;;;;;16.21;58.16;97528.70;226522;1273;25331;-74
2024/03/23 09:50:05;;;;;;;9.20;6.80;;;;;;;16.28;57.95;97524.40;226431;1274;22559;-75
2024/03/23 09:55:09;;;;;;;7.00;6.20;;;;;;;16.33;57.34;97513.06;226516;1274;22554;-74
2024/03/23 10:00:12;;;;;;;8.90;6.50;;;;;;;16.42;57.88;97496.45;226525;1262;24354;-74
2024/03/23 10:05:24;;;;;;;8.30;6.40;;;;;;;16.57;58.01;97486.73;226459;1267;22555;-73
2024/03/23 10:10:35;;;;;;;8.30;6.00;;;;;;;16.80;57.84;97465.48;226483;1269;22540;-72
2024/03/23 10:15:36;;;;;;;7.70;5.60;;;;;;;17.10;57.98;97451.52;226488;1269;24769;-73
2024/03/23 10:20:38;;;;;;;9.50;6.60;;;;;;;17.41;57.36;97446.67;226345;1267;24344;-74
2024/03/23 10:25:40;;;;;;;8.80;5.80;;;;;;;17.80;57.09;97456.33;226293;1267;22557;-73
2024/03/23 10:30:42;;;;;;;7.20;5.10;;;;;;;18.10;56.49;97440.64;226319;1262;22567;-73
2024/03/23 10:35:47;;;;;;;7.60;5.50;;;;;;;18.22;54.78;97424.70;226274;1262;22558;-73
2024/03/23 10:40:49;;;;;;;7.80;5.60;;;;;;;18.16;54.03;97410.95;226324;1251;23059;-74
2024/03/23 10:45:50;;;;;;;7.90;5.90;;;;;;;18.18;54.45;97403.68;226352;1267;22583;-73
2024/03/23 10:50:53;;;;;;;6.00;4.70;;;;;;;18.26;53.91;97383.67;226322;1259;22545;-73
2024/03/23 10:55:58;;;;;;;5.90;4.90;;;;;;;18.22;53.27;97370.21;226334;1264;22572;-74
2024/03/23 11:01:02;;;;;;;6.30;4.30;;;;;;;18.25;52.86;97349.13;226319;1271;24412;-75
2024/03/23 11:06:08;;;;;;;5.70;4.20;;;;;;;18.36;52.65;97326.88;226270;1254;22549;-74
2024/03/23 11:11:20;;;;;;;5.50;3.80;;;;;;;18.47;51.67;97315.77;226286;1273;22547;-74
2024/03/23 11:16:37;;;;;;;5.20;3.60;;;;;;;18.60;51.99;97303.59;226265;1265;22590;-75
2024/03/23 11:21:55;;;;;;;4.10;3.20;;;;;;;18.77;51.30;97295.48;226461;1270;22933;-75
2024/03/23 11:27:03;;;;;;;6.50;3.70;;;;;;;18.83;50.22;97275.91;226521;1271;22581;-74
2024/03/23 11:32:09;;;;;;;3.90;3.00;;;;;;;18.97;50.71;97260.66;226421;1268;22575;-75
2024/03/23 11:37:11;;;;;;;5.00;2.40;;;;;;;19.12;50.36;97252.95;226394;1274;22548;-74
2024/03/23 11:42:15;;;;;;;18.60;14.90;;;;;;;19.21;49.74;97246.91;226252;1272;25351;-74
2024/03/23 11:47:17;;;;;;;3.20;2.50;;;;;;;19.23;49.37;97228.59;226307;1271;22550;-74
2024/03/23 11:52:18;;;;;;;5.10;2.20;;;;;;;19.26;48.90;97215.29;226461;1267;22565;-74
2024/03/23 11:57:20;;;;;;;3.30;2.40;;;;;;;19.28;48.53;97200.64;226537;1265;22532;-74
2024/03/23 12:02:23;;;;;;;4.20;2.20;;;;;;;19.37;48.61;97182.11;226431;1271;22564;-75
2024/03/23 12:07:24;;;;;;;2.60;2.40;;;;;;;19.50;48.26;97173.06;226554;1271;22560;-74
2024/03/23 12:12:26;;;;;;;3.70;2.30;;;;;;;19.57;47.74;97159.92;226447;1265;22570;-73
2024/03/23 12:17:28;;;;;;;3.10;2.40;;;;;;;19.59;47.63;97147.39;226546;1272;22582;-74
2024/03/23 12:22:30;;;;;;;6.30;2.80;;;;;;;19.56;46.82;97134.43;226558;1267;22567;-73
2024/03/23 12:27:32;;;;;;;5.30;2.80;;;;;;;19.61;47.28;97113.94;226578;1273;22548;-73
2024/03/23 12:32:34;;;;;;;3.70;2.20;;;;;;;19.70;46.15;97094.38;226612;1270;22561;-73
2024/03/23 12:37:36;;;;;;;4.40;2.30;;;;;;;19.74;46.21;97092.77;226560;1270;22541;-73
2024/03/23 12:42:37;;;;;;;5.70;2.50;;;;;;;19.79;46.61;97083.91;226557;1268;22556;-73
2024/03/23 12:47:39;;;;;;;2.90;2.30;;;;;;;19.98;46.22;97074.42;226502;1272;22572;-74
2024/03/23 12:52:42;;;;;;;3.30;1.80;;;;;;;20.13;45.66;97075.59;226554;1273;22550;-74
2024/03/23 12:57:43;;;;;;;2.20;1.90;;;;;;;20.23;45.86;97072.61;226431;1273;22548;-75
2024/03/23 13:02:45;;;;;;;3.80;2.50;;;;;;;20.24;45.65;97067.65;226608;1272;22542;-74
2024/03/23 13:07:47;;;;;;;3.20;1.80;;;;;;;20.35;45.77;97057.35;226588;1269;24310;-75
2024/03/23 13:12:49;;;;;;;3.80;2.30;;;;;;;20.62;45.91;97065.84;226539;1271;22685;-74
2024/03/23 13:17:52;;;;;;;2.50;1.90;;;;;;;20.61;44.96;97070.63;226637;1272;22526;-74
2024/03/23 13:22:54;;;;;;;5.60;2.20;;;;;;;20.22;45.62;97089.42;226576;1269;24286;-74
2024/03/23 13:27:55;;;;;;;2.70;2.50;;;;;;;19.69;46.24;97162.33;226498;1274;22555;-74
2024/03/23 13:32:57;;;;;;;3.50;1.30;;;;;;;18.97;50.23;97296.27;226618;1269;22706;-76
2024/03/23 13:37:59;;;;;;;2.60;1.10;;;;;;;16.52;58.59;97353.04;226504;1273;22558;-79
2024/03/23 13:43:01;;;;;;;3.50;0.80;;;;;;;14.00;63.83;97351.77;226631;1273;23304;-80
2024/03/23 13:48:03;;;;;;;1.30;1.00;;;;;;;12.38;68.64;97368.10;226528;1274;22545;-83
2024/03/23 13:53:06;;;;;;;2.40;1.30;;;;;;;11.36;71.67;97390.13;226425;1274;22571;-80
2024/03/23 13:58:11;;;;;;;2.90;1.60;;;;;;;10.75;73.10;97398.61;226492;1251;22585;-78
2024/03/23 14:03:13;;;;;;;3.00;1.80;;;;;;;10.42;73.73;97399.70;226615;1271;22548;-79
2024/03/23 14:08:15;;;;;;;3.90;1.40;;;;;;;10.30;74.71;97397.11;226551;1270;23273;-77
2024/03/23 14:13:18;;;;;;;3.40;1.40;;;;;;;10.32;75.29;97381.83;226590;1268;25097;-77
2024/03/23 14:18:20;;;;;;;1.80;1.00;;;;;;;10.37;75.76;97377.22;226497;1270;22622;-77
2024/03/23 14:23:21;;;;;;;1.70;1.10;;;;;;;10.39;76.00;97351.35;226631;1270;22544;-77
2024/03/23 14:28:23;;;;;;;2.60;1.40;;;;;;;10.43;76.03;97343.98;226399;1274;22541;-77
2024/03/23 14:33:25;;;;;;;4.10;2.70;;;;;;;10.47;76.23;97332.54;226616;1257;22547;-77
2024/03/23 14:38:27;;;;;;;2.00;1.40;;;;;;;10.48;76.70;97318.74;226618;1274;22545;-76
2024/03/23 14:43:30;;;;;;;3.10;1.90;;;;;;;10.49;76.98;97318.09;226467;1271;226167;-76
2024/03/23 14:48:32;;;;;;;2.80;2.20;;;;;;;10.55;77.23;97317.63;226556;1270;22664;-77
2024/03/23 14:53:35;;;;;;;3.80;2.00;;;;;;;10.61;77.47;97316.75;226737;1267;22571;-77
2024/03/23 14:58:37;;;;;;;2.90;2.10;;;;;;;10.63;78.06;97328.55;226438;1267;23445;-77
2024/03/23 15:03:40;;;;;;;4.70;3.20;;;;;;;10.63;78.58;97336.36;226574;1271;22581;-77
2024/03/23 15:08:41;;;;;;;5.40;3.80;;;;;;;10.60;79.08;97362.42;226757;1271;23416;-75
2024/03/23 15:13:43;;;;;;;10.80;6.90;;;;;;;10.54;79.89;97381.76;226552;1272;22685;-76
2024/03/23 15:18:46;;;;;;;8.40;6.00;;;;;;;10.48;80.69;97382.33;226505;1274;22549;-77
2024/03/23 15:23:48;;;;;;;5.80;3.70;;;;;;;10.45;80.71;97376.39;226606;1270;22569;-76
2024/03/23 15:34:00;;;;;;;4.80;3.20;;;;;;;10.45;80.29;97359.00;226537;1269;25401;-76
2024/03/23 15:39:02;;;;;;;3.70;3.20;;;;;;;10.46;80.40;97356.88;226533;1274;22569;-75
2024/03/23 15:44:05;;;;;;;8.50;5.50;;;;;;;10.51;80.52;97370.84;226599;1251;23069;-76
2024/03/23 15:49:07;;;;;;;8.70;5.60;;;;;;;10.56;80.36;97391.07;226520;1274;22591;-75
2024/03/23 15:54:09;;;;;;;10.30;6.30;;;;;;;10.58;80.27;97398.03;226602;1272;24281;-75
2024/03/23 15:59:11;;;;;;;8.10;5.20;;;;;;;10.60;80.29;97402.04;226596;1274;23617;-76
2024/03/23 16:04:13;;;;;;;6.60;4.30;;;;;;;10.61;80.27;97404.39;226402;1273;22540;-75
2024/03/23 16:09:15;;;;;;;6.40;4.60;;;;;;;10.62;80.27;97444.40;226586;1251;22542;-77
2024/03/23 16:14:17;;;;;;;3.70;3.40;;;;;;;10.37;79.58;97541.46;226459;1274;22536;-79
2024/03/23 16:19:19;;;;;;;3.40;2.80;;;;;;;9.47;78.39;97562.27;226424;1265;22545;-79
2024/03/23 16:24:21;;;;;;;5.10;3.20;;;;;;;8.57;78.93;97584.81;226680;1272;23465;-79
2024/03/23 16:29:23;;;;;;;3.30;3.00;;;;;;;7.87;79.51;97602.66;226480;1274;22571;-79
2024/03/23 16:34:25;;;;;;;2.20;1.70;;;;;;;7.34;81.02;97635.21;226617;1271;22547;-79
2024/03/23 16:39:27;;;;;;;2.50;1.60;;;;;;;6.73;83.61;97650.86;226335;1273;22545;-80
2024/03/23 16:44:28;;;;;;;2.10;1.60;;;;;;;6.23;83.80;97674.98;226572;1272;23326;-80
2024/03/23 16:49:31;;;;;;;2.50;1.90;;;;;;;5.92;84.10;97685.04;226588;1274;22680;-79
2024/03/23 16:54:33;;;;;;;2.90;2.30;;;;;;;5.77;84.43;97704.16;226515;1271;22554;-79
2024/03/23 16:59:35;;;;;;;3.50;2.60;;;;;;;5.70;84.86;97697.70;226596;1270;22965;-78
2024/03/23 17:04:37;;;;;;;3.20;2.80;;;;;;;5.69;84.73;97707.20;226607;1271;22808;-77
2024/03/23 17:09:47;;;;;;;3.40;3.10;;;;;;;5.73;84.84;97719.91;226484;1273;22618;-78
2024/03/23 17:14:48;;;;;;;4.10;3.60;;;;;;;5.73;84.94;97735.57;226559;1271;23058;-78
2024/03/23 17:19:59;;;;;;;3.60;3.30;;;;;;;5.71;84.84;97749.37;226597;1274;25267;-78
2024/03/23 17:25:00;;;;;;;;;;;;;;;5.69;84.84;97750.73;226670;1272;22515;-76
2024/03/23 17:30:03;;;;;;;2.80;2.50;;;;;;;5.63;84.51;97759.30;226431;1266;22536;-76
2024/03/23 17:35:05;;;;;;;3.00;2.60;;;;;;;5.52;84.02;97785.63;226596;1272;22964;-77
2024/03/23 17:40:08;;;;;;;3.30;3.00;;;;;;;5.40;83.22;97794.45;226562;1269;22548;-77
2024/03/23 17:45:13;;;;;;;3.80;2.60;;;;;;;5.29;83.67;97806.42;226561;1274;22549;-76
2024/03/23 17:50:15;;;;;;;2.80;2.50;;;;;;;5.19;83.10;97828.73;226509;1272;23027;-77
2024/03/23 17:55:17;;;;;;;3.30;2.80;;;;;;;5.12;83.26;97820.52;226484;1272;22492;-76
2024/03/23 18:00:19;;;;;;;2.90;2.60;;;;;;;5.09;82.80;97828.09;226636;1272;22675;-76
2024/03/23 18:05:21;;;;;;;4.00;3.10;;;;;;;5.09;82.82;97844.76;226581;1273;22634;-76
2024/03/23 18:10:24;;;;;;;2.90;2.70;;;;;;;5.08;82.61;97861.18;226753;1271;22541;-76
2024/03/23 18:15:26;;;;;;;3.30;2.70;;;;;;;5.08;82.61;97861.60;226510;1274;22621;-76
2024/03/23 18:20:28;;;;;;;4.30;3.30;;;;;;;5.08;82.32;97869.27;226571;1273;22541;-77
2024/03/23 18:25:32;;;;;;;4.60;3.00;;;;;;;5.08;81.99;97873.81;226500;1274;22525;-76
2024/03/23 18:30:33;;;;;;;4.00;3.30;;;;;;;5.07;81.95;97865.19;226491;1252;22597;-76
2024/03/23 18:35:35;;;;;;;3.00;2.70;;;;;;;5.06;81.36;97864.61;226571;1272;22579;-75
2024/03/23 18:40:37;;;;;;;2.80;2.40;;;;;;;5.05;81.52;97865.39;226389;1272;22582;-76
2024/03/23 18:45:54;;;;;;;2.80;2.00;;;;;;;5.05;80.71;97872.24;226548;1271;22548;-76
2024/03/23 18:50:56;;;;;;;2.70;2.00;;;;;;;5.06;80.63;97876.84;226392;1274;22546;-75
2024/03/23 18:55:57;;;;;;;2.00;1.40;;;;;;;5.06;80.19;97880.38;226655;1271;22552;-76
2024/03/23 19:01:05;;;;;;;1.90;1.50;;;;;;;5.05;79.67;97883.60;226391;1273;22907;-76
2024/03/23 19:06:07;;;;;;;1.60;1.50;;;;;;;5.04;79.27;97886.90;226575;1273;22663;-76
2024/03/23 19:11:09;;;;;;;1.80;1.70;;;;;;;5.03;79.00;97884.18;226603;1271;22546;-76
2024/03/23 19:16:11;;;;;;;2.90;2.10;;;;;;;4.99;78.88;97882.86;226380;1274;22549;-76
2024/03/23 19:21:13;;;;;;;3.40;2.10;;;;;;;4.95;79.09;97871.80;226590;1273;22531;-75
2024/03/23 19:26:15;;;;;;;2.40;1.50;;;;;;;4.92;79.01;97867.26;226570;1272;22822;-75
2024/03/23 19:31:18;;;;;;;2.80;2.10;;;;;;;4.92;79.02;97865.29;226564;1274;22628;-75
2024/03/23 19:36:20;;;;;;;4.20;2.40;;;;;;;4.89;78.53;97869.86;226525;1271;22576;-75
2024/03/23 19:41:24;;;;;;;2.50;2.20;;;;;;;4.86;78.93;97882.10;226577;1274;22678;-77
2024/03/23 19:46:26;;;;;;;3.30;2.50;;;;;;;4.82;79.10;97901.95;226564;1263;22564;-74
2024/03/23 19:51:27;;;;;;;3.90;2.70;;;;;;;4.79;79.02;97907.67;226586;1268;25281;-75
2024/03/23 19:56:29;;;;;;;4.50;3.10;;;;;;;4.77;79.10;97909.27;226577;1272;24114;-75
2024/03/23 20:01:31;;;;;;;3.50;3.10;;;;;;;4.76;79.15;97910.94;226557;1252;22565;-75
2024/03/23 20:06:33;;;;;;;3.50;2.80;;;;;;;4.75;79.15;97886.52;226589;1271;22634;-76
2024/03/23 20:11:38;;;;;;;4.20;3.00;;;;;;;4.74;79.08;97871.63;226545;1271;22561;-75
2024/03/23 20:16:39;;;;;;;4.40;2.70;;;;;;;4.73;79.12;97891.29;226641;1272;22541;-75
2024/03/23 20:21:43;;;;;;;4.20;2.70;;;;;;;4.71;79.19;97900.58;226580;1273;22557;-75
2024/03/23 20:26:46;;;;;;;4.70;2.60;;;;;;;4.68;79.16;97896.73;226578;1274;22546;-75
2024/03/23 20:31:50;;;;;;;4.10;2.50;;;;;;;4.66;78.59;97898.21;226569;1268;23108;-75
2024/03/23 20:36:51;;;;;;;3.20;2.10;;;;;;;4.63;78.44;97898.32;226622;1265;22555;-75
2024/03/23 20:41:54;;;;;;;2.40;2.10;;;;;;;4.60;78.07;97901.70;226570;1271;22543;-75
2024/03/23 20:46:55;;;;;;;3.40;2.10;;;;;;;4.59;78.11;97896.17;226599;1274;22549;-75
2024/03/23 20:51:58;;;;;;;3.00;1.80;;;;;;;4.55;77.62;97888.70;226594;1271;22566;-75
2024/03/23 20:57:00;;;;;;;2.20;1.80;;;;;;;4.52;77.72;97885.90;226565;1271;22556;-75
2024/03/23 21:02:02;;;;;;;3.50;2.10;;;;;;;4.49;77.67;97886.39;226371;1273;25288;-75
2024/03/23 21:07:04;;;;;;;5.00;2.50;;;;;;;4.47;77.65;97892.71;226590;1274;25530;-75
2024/03/23 21:12:06;;;;;;;4.40;2.10;;;;;;;4.44;77.66;97900.27;226564;1271;22549;-73
2024/03/23 21:17:08;;;;;;;3.10;1.70;;;;;;;4.42;77.44;97898.38;226591;1272;22541;-74
2024/03/23 21:22:14;;;;;;;4.00;2.10;;;;;;;4.43;77.38;97889.09;226583;1272;22641;-73
2024/03/23 21:27:16;;;;;;;5.10;2.80;;;;;;;4.42;77.70;97890.89;226627;1265;22569;-74
2024/03/23 21:32:20;;;;;;;5.60;2.60;;;;;;;4.42;77.69;97891.81;226563;1269;22526;-76
2024/03/23 21:37:22;;;;;;;4.10;2.70;;;;;;;4.40;77.73;97873.21;226543;1272;22543;-75
2024/03/23 21:42:23;;;;;;;3.40;2.60;;;;;;;4.37;77.85;97863.23;226659;1274;22549;-74
2024/03/23 21:47:25;;;;;;;4.60;2.70;;;;;;;4.36;77.79;97855.48;226684;1271;22665;-74
2024/03/23 21:52:27;;;;;;;5.80;3.40;;;;;;;4.39;77.71;97846.84;226589;1266;22542;-74
2024/03/23 21:57:30;;;;;;;5.10;3.00;;;;;;;4.37;78.03;97858.68;226579;1274;23728;-74
2024/03/23 22:02:32;;;;;;;4.40;2.50;;;;;;;4.35;77.87;97853.07;226532;1272;22571;-75
2024/03/23 22:07:37;;;;;;;5.80;3.60;;;;;;;4.30;77.74;97840.36;226528;1274;22545;-75
2024/03/23 22:12:39;;;;;;;6.90;4.00;;;;;;;4.26;78.08;97836.63;226420;1272;22935;-74
2024/03/23 22:17:40;;;;;;;6.80;4.30;;;;;;;4.24;78.36;97831.23;226558;1271;22596;-74
2024/03/23 22:22:42;;;;;;;6.10;3.90;;;;;;;4.23;78.38;97823.49;226535;1274;22533;-74
2024/03/23 22:27:44;;;;;;;8.60;5.10;;;;;;;4.21;78.62;97829.48;226539;1271;25250;-74
2024/03/23 22:32:47;;;;;;;8.40;4.90;;;;;;;4.19;78.54;97832.09;226441;1266;22559;-74
2024/03/23 22:37:49;;;;;;;5.40;3.50;;;;;;;4.17;78.37;97843.30;226539;1274;22581;-75
2024/03/23 22:42:51;;;;;;;6.40;3.30;;;;;;;4.15;78.56;97852.25;226576;1271;22566;-74
2024/03/23 22:47:55;;;;;;;5.20;3.30;;;;;;;4.11;78.51;97861.81;226533;1272;22537;-75
2024/03/23 22:52:57;;;;;;;5.10;3.00;;;;;;;4.06;78.77;97864.60;226543;1274;22543;-75
2024/03/23 22:57:58;;;;;;;4.70;2.90;;;;;;;4.03;78.95;97854.52;226616;1272;22549;-75
2024/03/23 23:03:00;;;;;;;4.60;3.20;;;;;;;4.01;79.09;97848.74;226567;1272;22578;-76
2024/03/23 23:08:03;;;;;;;6.20;3.70;;;;;;;3.99;78.82;97836.52;226495;1274;22539;-75
2024/03/23 23:13:05;;;;;;;7.90;4.30;;;;;;;3.96;78.88;97827.11;226660;1272;22664;-75
2024/03/23 23:18:08;;;;;;;7.80;4.60;;;;;;;3.91;79.24;97835.46;226461;1274;22547;-75
2024/03/23 23:23:14;;;;;;;10.90;5.70;;;;;;;3.87;79.29;97845.10;226569;1272;22549;-74
2024/03/23 23:28:16;;;;;;;9.00;5.20;;;;;;;3.84;79.63;97848.95;226581;1274;23308;-74